createdAt,value
2022-08-22T00:02:02.324Z,20.03
2022-08-22T00:02:57.280Z,21.87
2022-08-22T00:02:57.439Z,19.97
2022-08-22T00:04:44.140Z,20.06
2022-08-22T00:07:14.807Z,20.09
2022-08-22T00:09:52.591Z,20.05
2022-08-22T00:12:29.748Z,20.11
2022-08-22T00:15:15.566Z,20.14
2022-08-22T00:18:01.110Z,19.90
2022-08-22T00:20:49.263Z,20.07
2022-08-22T00:23:28.814Z,20.13
2022-08-22T00:26:03.913Z,20.16
2022-08-22T00:28:50.143Z,20.18
2022-08-22T00:31:36.600Z,20.18
2022-08-22T00:34:12.806Z,20.22
2022-08-22T00:36:48.152Z,20.05
2022-08-22T00:39:29.329Z,20.02
2022-08-22T00:42:29.562Z,20.15
2022-08-22T00:45:14.553Z,20.13
2022-08-22T00:48:18.951Z,20.12
2022-08-22T00:51:01.420Z,20.15
2022-08-22T00:53:43.445Z,20.12
2022-08-22T00:56:19.797Z,20.09
2022-08-22T00:59:27.792Z,19.99
2022-08-22T01:02:04.993Z,20.06
2022-08-22T01:04:52.401Z,20.01
2022-08-22T01:07:50.979Z,20.04
2022-08-22T01:10:28.138Z,20.04
2022-08-22T01:13:20.452Z,19.97
2022-08-22T01:15:50.573Z,20.03
2022-08-22T01:18:29.505Z,20.03
2022-08-22T01:21:24.182Z,19.95
2022-08-22T01:24:09.574Z,19.97
2022-08-22T01:27:14.854Z,19.94
2022-08-22T01:29:53.854Z,19.97
2022-08-22T01:32:48.049Z,19.96
2022-08-22T01:35:34.836Z,19.93
2022-08-22T01:38:13.927Z,19.93
2022-08-22T01:41:04.103Z,19.79
2022-08-22T01:43:43.854Z,19.93
2022-08-22T01:46:57.144Z,19.93
2022-08-22T01:49:44.420Z,19.90
2022-08-22T01:52:31.486Z,19.92
2022-08-22T01:55:09.635Z,20.00
2022-08-22T01:57:55.825Z,19.88
2022-08-22T02:00:35.104Z,19.99
2022-08-22T02:03:30.325Z,19.97
2022-08-22T02:06:16.260Z,19.94
2022-08-22T02:09:27.562Z,19.95
2022-08-22T02:12:22.910Z,19.99
2022-08-22T02:14:59.834Z,19.92
2022-08-22T02:17:32.369Z,19.99
2022-08-22T02:20:10.521Z,19.91
2022-08-22T02:22:51.986Z,19.86
2022-08-22T02:25:27.054Z,19.88
2022-08-22T02:28:07.112Z,19.82
2022-08-22T02:30:46.191Z,19.96
2022-08-22T02:33:25.891Z,19.96
2022-08-22T02:36:00.077Z,19.70
2022-08-22T02:38:48.332Z,19.76
2022-08-22T02:41:24.399Z,19.86
2022-08-22T02:44:12.938Z,19.82
2022-08-22T02:46:40.051Z,19.76
2022-08-22T02:49:19.006Z,19.71
2022-08-22T02:52:02.664Z,19.42
2022-08-22T02:54:43.325Z,19.53
2022-08-22T02:57:28.202Z,19.56
2022-08-22T03:00:31.270Z,19.50
2022-08-22T03:02:59.804Z,19.64
2022-08-22T03:05:49.634Z,19.67
2022-08-22T03:08:22.482Z,19.43
2022-08-22T03:11:27.376Z,19.59
2022-08-22T03:14:14.029Z,19.64
2022-08-22T03:17:14.902Z,19.59
2022-08-22T03:19:48.641Z,19.61
2022-08-22T03:22:37.670Z,19.63
2022-08-22T03:25:22.246Z,19.66
2022-08-22T03:28:02.393Z,19.79
2022-08-22T03:30:45.263Z,19.79
2022-08-22T03:33:21.352Z,19.81
2022-08-22T03:35:48.220Z,19.77
2022-08-22T03:38:33.613Z,19.79
2022-08-22T03:41:03.493Z,19.79
2022-08-22T03:43:48.666Z,19.79
2022-08-22T03:46:24.613Z,19.83
2022-08-22T03:49:06.586Z,19.83
2022-08-22T03:51:33.839Z,19.79
2022-08-22T03:54:15.902Z,19.76
2022-08-22T03:57:24.512Z,19.52
2022-08-22T04:00:29.821Z,19.73
2022-08-22T04:03:16.964Z,19.83
2022-08-22T04:06:12.754Z,19.85
2022-08-22T04:09:29.176Z,19.83
2022-08-22T04:12:17.910Z,19.91
2022-08-22T04:15:08.635Z,19.99
2022-08-22T04:17:54.282Z,20.21
2022-08-22T04:20:40.494Z,20.42
2022-08-22T04:23:26.776Z,20.58
2022-08-22T04:25:59.612Z,20.73
2022-08-22T04:28:47.328Z,20.96
2022-08-22T04:31:21.090Z,21.03
2022-08-22T04:33:54.734Z,21.04
2022-08-22T04:36:35.169Z,21.32
2022-08-22T04:39:10.907Z,21.35
2022-08-22T04:41:50.863Z,21.48
2022-08-22T04:44:27.226Z,21.83
2022-08-22T04:47:12.808Z,22.35
2022-08-22T04:49:57.098Z,22.78
2022-08-22T04:52:42.863Z,23.12
2022-08-22T04:55:32.522Z,23.10
2022-08-22T04:58:23.885Z,22.82
2022-08-22T05:01:12.553Z,22.94
2022-08-22T05:03:51.099Z,23.09
2022-08-22T05:06:22.603Z,23.15
2022-08-22T05:08:54.060Z,23.19
2022-08-22T05:11:24.254Z,23.08
2022-08-22T05:13:57.402Z,22.78
2022-08-22T05:16:31.370Z,22.72
2022-08-22T05:19:08.204Z,22.76
2022-08-22T05:21:39.049Z,22.80
2022-08-22T05:24:06.028Z,23.03
2022-08-22T05:26:57.782Z,23.07
2022-08-22T05:29:30.333Z,23.20
2022-08-22T05:32:05.487Z,23.46
2022-08-22T05:34:38.500Z,23.83
2022-08-22T05:37:12.011Z,24.11
2022-08-22T05:39:47.334Z,24.01
2022-08-22T05:42:25.635Z,24.12
2022-08-22T05:44:54.472Z,24.38
2022-08-22T05:47:27.620Z,24.47
2022-08-22T05:50:02.986Z,24.61
2022-08-22T05:52:39.096Z,25.10
2022-08-22T05:55:26.735Z,25.48
2022-08-22T05:58:16.716Z,25.73
2022-08-22T06:00:48.566Z,26.21
2022-08-22T06:03:30.409Z,26.42
2022-08-22T06:06:03.423Z,26.47
2022-08-22T06:08:40.052Z,26.19
2022-08-22T06:11:15.926Z,25.95
2022-08-22T06:13:51.129Z,26.04
2022-08-22T06:16:36.714Z,26.15
2022-08-22T06:19:19.399Z,26.50
2022-08-22T06:21:50.930Z,26.73
2022-08-22T06:24:24.494Z,26.93
2022-08-22T06:26:57.202Z,26.91
2022-08-22T06:29:49.041Z,27.01
2022-08-22T06:32:44.345Z,27.05
2022-08-22T06:35:19.804Z,26.71
2022-08-22T06:37:49.909Z,26.82
2022-08-22T06:40:18.621Z,27.10
2022-08-22T06:42:51.846Z,27.06
2022-08-22T06:45:32.741Z,27.16
2022-08-22T06:48:16.923Z,27.18
2022-08-22T06:50:49.134Z,27.20
2022-08-22T06:53:21.880Z,27.21
2022-08-22T06:55:55.256Z,27.10
2022-08-22T06:58:34.244Z,27.25
2022-08-22T07:01:12.775Z,27.37
2022-08-22T07:03:47.349Z,27.43
2022-08-22T07:06:21.561Z,27.34
2022-08-22T07:08:53.387Z,27.10
2022-08-22T07:11:28.801Z,27.32
2022-08-22T07:14:06.975Z,27.51
2022-08-22T07:16:56.666Z,27.41
2022-08-22T07:19:28.593Z,27.26
2022-08-22T07:21:57.507Z,26.93
2022-08-22T07:24:29.396Z,26.82
2022-08-22T07:27:08.576Z,26.98
2022-08-22T07:29:56.766Z,26.98
2022-08-22T07:32:51.789Z,26.98
2022-08-22T07:35:42.163Z,27.45
2022-08-22T07:38:36.546Z,27.81
2022-08-22T07:41:17.564Z,27.87
2022-08-22T07:43:54.217Z,27.99
2022-08-22T07:46:33.320Z,28.11
2022-08-22T07:49:24.717Z,28.12
2022-08-22T07:52:02.486Z,28.18
2022-08-22T07:54:52.728Z,28.12
2022-08-22T07:57:31.994Z,28.25
2022-08-22T08:00:00.359Z,28.07
2022-08-22T08:02:28.446Z,28.19
2022-08-22T08:05:00.308Z,28.31
2022-08-22T08:07:30.514Z,28.43
2022-08-22T08:10:10.025Z,28.27
2022-08-22T08:13:02.626Z,28.26
2022-08-22T08:15:33.326Z,28.41
2022-08-22T08:18:05.530Z,28.46
2022-08-22T08:20:36.322Z,28.27
2022-08-22T08:23:06.905Z,28.39
2022-08-22T08:25:49.013Z,28.44
2022-08-22T08:28:34.311Z,28.56
2022-08-22T08:31:18.046Z,28.50
2022-08-22T08:33:48.657Z,28.46
2022-08-22T08:36:40.086Z,28.33
2022-08-22T08:39:16.222Z,28.32
2022-08-22T08:41:55.722Z,28.42
2022-08-22T08:44:34.177Z,28.54
2022-08-22T08:47:29.491Z,28.80
2022-08-22T08:50:29.371Z,28.90
2022-08-22T08:53:21.921Z,29.00
2022-08-22T08:56:03.306Z,29.25
2022-08-22T08:58:54.897Z,29.29
2022-08-22T09:02:00.249Z,29.09
2022-08-22T09:04:39.690Z,29.06
2022-08-22T09:07:21.594Z,29.21
2022-08-22T09:10:04.570Z,29.39
2022-08-22T09:12:32.453Z,29.38
2022-08-22T09:15:14.201Z,29.42
2022-08-22T09:18:10.738Z,29.53
2022-08-22T09:20:51.290Z,29.65
2022-08-22T09:23:47.519Z,29.61
2022-08-22T09:26:39.322Z,29.76
2022-08-22T09:29:54.864Z,29.88
2022-08-22T09:32:33.887Z,29.90
2022-08-22T09:35:09.069Z,29.58
2022-08-22T09:37:57.056Z,29.75
2022-08-22T09:40:29.197Z,29.95
2022-08-22T09:43:07.275Z,29.97
2022-08-22T09:45:37.450Z,29.96
2022-08-22T09:48:14.139Z,30.23
2022-08-22T09:51:01.639Z,30.30
2022-08-22T09:53:58.838Z,30.70
2022-08-22T09:56:52.040Z,30.57
2022-08-22T09:59:50.937Z,30.51
2022-08-22T10:02:30.394Z,30.54
2022-08-22T10:05:07.688Z,30.75
2022-08-22T10:07:52.809Z,30.89
2022-08-22T10:10:39.600Z,30.96
2022-08-22T10:13:38.476Z,31.02
2022-08-22T10:16:11.824Z,31.08
2022-08-22T10:19:01.054Z,31.09
2022-08-22T10:21:39.838Z,31.11
2022-08-22T10:24:33.683Z,31.21
2022-08-22T10:27:19.646Z,31.03
2022-08-22T10:30:13.271Z,31.01
2022-08-22T10:33:12.181Z,30.93
2022-08-22T10:35:55.212Z,30.86
2022-08-22T10:38:29.325Z,30.92
2022-08-22T10:41:28.550Z,31.02
2022-08-22T10:44:09.227Z,30.99
2022-08-22T10:46:54.334Z,31.13
2022-08-22T10:49:30.055Z,31.27
2022-08-22T10:52:13.646Z,31.40
2022-08-22T10:54:48.908Z,31.60
2022-08-22T10:57:36.934Z,31.71
2022-08-22T11:00:31.953Z,31.54
2022-08-22T11:03:42.662Z,31.32
2022-08-22T11:06:18.187Z,31.13
2022-08-22T11:08:54.272Z,31.20
2022-08-22T11:11:33.205Z,31.28
2022-08-22T11:14:19.069Z,31.05
2022-08-22T11:16:55.279Z,31.09
2022-08-22T11:19:42.722Z,31.09
2022-08-22T11:22:40.145Z,31.16
2022-08-22T11:25:28.668Z,31.01
2022-08-22T11:28:16.515Z,30.83
2022-08-22T11:31:17.143Z,30.87
2022-08-22T11:34:31.312Z,31.01
2022-08-22T11:37:12.907Z,31.09
2022-08-22T11:39:47.270Z,31.18
2022-08-22T11:42:31.905Z,31.15
2022-08-22T11:45:02.186Z,31.26
2022-08-22T11:47:45.375Z,31.41
2022-08-22T11:50:35.211Z,31.28
2022-08-22T11:53:16.677Z,31.35
2022-08-22T11:56:10.328Z,31.24
2022-08-22T11:59:12.747Z,31.09
2022-08-22T12:02:02.202Z,31.14
2022-08-22T12:04:38.338Z,31.23
2022-08-22T12:07:18.577Z,31.08
2022-08-22T12:10:04.549Z,31.05
2022-08-22T12:12:52.943Z,31.09
2022-08-22T12:15:22.820Z,30.92
2022-08-22T12:18:03.473Z,31.00
2022-08-22T12:20:49.052Z,31.13
2022-08-22T12:23:48.865Z,31.19
2022-08-22T12:26:45.503Z,31.07
2022-08-22T12:29:34.025Z,31.26
2022-08-22T12:32:27.543Z,31.17
2022-08-22T12:35:29.830Z,30.95
2022-08-22T12:37:57.376Z,31.00
2022-08-22T12:41:07.941Z,30.87
2022-08-22T12:43:57.002Z,30.86
2022-08-22T12:46:28.781Z,30.97
2022-08-22T12:49:36.992Z,30.98
2022-08-22T12:52:46.662Z,30.95
2022-08-22T12:55:41.186Z,30.86
2022-08-22T12:58:24.580Z,30.93
2022-08-22T13:00:52.766Z,30.99
2022-08-22T13:03:34.276Z,31.00
2022-08-22T13:06:26.085Z,31.02
2022-08-22T13:08:54.682Z,30.68
2022-08-22T13:11:23.728Z,30.81
2022-08-22T13:13:57.391Z,30.91
2022-08-22T13:16:36.401Z,30.75
2022-08-22T13:19:13.783Z,30.80
2022-08-22T13:21:50.763Z,30.85
2022-08-22T13:24:52.510Z,31.15
2022-08-22T13:27:29.827Z,31.39
2022-08-22T13:30:13.634Z,31.21
2022-08-22T13:32:46.120Z,30.96
2022-08-22T13:35:36.153Z,31.20
2022-08-22T13:38:16.815Z,31.09
2022-08-22T13:40:54.462Z,31.18
2022-08-22T13:43:25.659Z,31.25
2022-08-22T13:46:05.041Z,31.01
2022-08-22T13:48:58.950Z,31.17
2022-08-22T13:51:46.850Z,31.14
2022-08-22T13:54:16.725Z,31.09
2022-08-22T13:57:08.535Z,30.96
2022-08-22T13:59:53.088Z,31.03
2022-08-22T14:02:34.181Z,30.89
2022-08-22T14:05:07.942Z,30.75
2022-08-22T14:07:43.110Z,30.80
2022-08-22T14:10:19.062Z,30.54
2022-08-22T14:12:50.891Z,30.93
2022-08-22T14:15:26.122Z,30.89
2022-08-22T14:18:12.086Z,30.97
2022-08-22T14:20:41.827Z,30.83
2022-08-22T14:23:29.434Z,30.77
2022-08-22T14:25:57.647Z,30.93
2022-08-22T14:28:32.615Z,30.88
2022-08-22T14:31:13.469Z,30.77
2022-08-22T14:33:49.089Z,30.73
2022-08-22T14:36:37.880Z,30.68
2022-08-22T14:39:13.672Z,30.60
2022-08-22T14:41:52.854Z,30.57
2022-08-22T14:44:49.462Z,30.36
2022-08-22T14:47:54.579Z,30.37
2022-08-22T14:50:39.878Z,30.41
2022-08-22T14:53:24.975Z,30.33
2022-08-22T14:56:19.471Z,30.30
2022-08-22T14:59:06.638Z,30.33
2022-08-22T15:01:50.840Z,30.11
2022-08-22T15:04:48.294Z,29.97
2022-08-22T15:07:28.381Z,29.78
2022-08-22T15:10:03.906Z,29.70
2022-08-22T15:12:48.378Z,29.70
2022-08-22T15:15:28.567Z,29.60
2022-08-22T15:17:56.151Z,29.55
2022-08-22T15:20:45.268Z,29.46
2022-08-22T15:23:23.607Z,29.24
2022-08-22T15:26:03.568Z,29.32
2022-08-22T15:28:52.178Z,29.26
2022-08-22T15:31:20.551Z,29.08
2022-08-22T15:33:49.522Z,29.10
2022-08-22T15:36:24.303Z,29.10
2022-08-22T15:39:33.964Z,28.96
2022-08-22T15:42:02.848Z,28.91
2022-08-22T15:44:44.249Z,28.79
2022-08-22T15:47:34.930Z,28.81
2022-08-22T15:50:33.046Z,28.67
2022-08-22T15:53:18.769Z,28.58
2022-08-22T15:56:08.677Z,28.52
2022-08-22T15:58:40.411Z,28.47
2022-08-22T16:01:22.329Z,28.42
2022-08-22T16:04:14.047Z,28.31
2022-08-22T16:06:50.497Z,28.25
2022-08-22T16:09:39.434Z,28.17
2022-08-22T16:12:24.126Z,28.09
2022-08-22T16:14:52.042Z,28.11
2022-08-22T16:17:28.024Z,28.06
2022-08-22T16:20:19.522Z,27.97
2022-08-22T16:22:57.068Z,27.92
2022-08-22T16:25:45.565Z,27.83
2022-08-22T16:28:57.931Z,27.71
2022-08-22T16:31:28.726Z,27.66
2022-08-22T16:34:17.510Z,27.61
2022-08-22T16:36:53.329Z,27.56
2022-08-22T16:39:21.451Z,27.54
2022-08-22T16:41:50.062Z,27.49
2022-08-22T16:44:29.257Z,27.43
2022-08-22T16:47:11.323Z,26.89
2022-08-22T16:49:56.784Z,27.29
2022-08-22T16:52:26.993Z,27.28
2022-08-22T16:54:53.765Z,27.25
2022-08-22T16:57:36.522Z,27.05
2022-08-22T17:00:22.734Z,27.17
2022-08-22T17:03:09.247Z,27.07
2022-08-22T17:05:54.428Z,26.81
2022-08-22T17:08:55.560Z,27.04
2022-08-22T17:11:37.999Z,26.96
2022-08-22T17:14:46.270Z,26.90
2022-08-22T17:17:40.486Z,26.86
2022-08-22T17:20:14.587Z,26.81
2022-08-22T17:22:51.538Z,26.50
2022-08-22T17:25:28.126Z,26.69
2022-08-22T17:28:10.612Z,26.62
2022-08-22T17:30:37.458Z,26.50
2022-08-22T17:33:27.877Z,26.49
2022-08-22T17:36:04.630Z,26.45
2022-08-22T17:38:41.003Z,26.42
2022-08-22T17:41:38.159Z,26.28
2022-08-22T17:44:08.365Z,26.31
2022-08-22T17:46:52.642Z,26.30
2022-08-22T17:49:47.143Z,26.07
2022-08-22T17:52:28.415Z,26.19
